Time;durP1;ratioP1;P1;durP2;ratioP2;P2;SDS_P1;SDS_P2;PMS_P1;PMS_P2;Temp;Humidity;BMP_temperature;BMP_pressure;BME280_temperature;BME280_humidity;BME280_pressure;Samples;Min_cycle;Max_cycle;Signal;HPM_P1;HPM_P2
2021/12/31 00:02:19;;;;;;;14.67;8.70;;;;;;;6.60;85.38;95475.47;5074345;28;20590;-87
2021/12/31 00:04:44;;;;;;;17.57;9.17;;;;;;;6.20;85.31;95403.25;5074319;28;20159;-87
2021/12/31 00:07:10;;;;;;;15.20;9.10;;;;;;;5.84;85.04;95353.25;5073264;28;20678;-88
2021/12/31 00:09:45;;;;;;;14.90;8.93;;;;;;;6.56;85.60;95464.53;5053227;28;20262;-88
2021/12/31 00:12:11;;;;;;;15.17;8.57;;;;;;;6.41;84.98;95447.91;5065366;28;20220;-88
2021/12/31 00:14:37;;;;;;;17.57;9.70;;;;;;;6.71;85.24;95491.59;5065420;28;20186;-87
2021/12/31 00:17:04;;;;;;;19.37;10.30;;;;;;;6.73;85.20;95494.88;5064418;28;20186;-87
2021/12/31 00:19:32;;;;;;;17.87;9.47;;;;;;;6.54;84.93;95471.75;5072799;28;20170;-87
2021/12/31 00:22:00;;;;;;;17.37;10.17;;;;;;;6.48;84.75;95461.16;5061966;28;20179;-87
2021/12/31 00:24:27;;;;;;;18.60;9.83;;;;;;;6.61;84.71;95477.91;5062111;28;20229;-86
2021/12/31 00:26:52;;;;;;;16.57;9.80;;;;;;;6.76;84.49;95491.06;5069149;28;20190;-86
2021/12/31 00:29:18;;;;;;;17.37;8.93;;;;;;;6.60;84.49;95465.00;5062050;28;20193;-86
2021/12/31 00:31:43;;;;;;;18.30;9.97;;;;;;;6.74;84.47;95487.84;5054986;28;20182;-87
2021/12/31 00:34:09;;;;;;;17.30;9.30;;;;;;;6.54;84.72;95466.50;5061405;28;20682;-87
2021/12/31 00:36:39;;;;;;;13.40;8.80;;;;;;;6.63;84.87;95490.81;5059148;28;20247;-87
2021/12/31 00:39:04;;;;;;;14.07;8.60;;;;;;;6.43;84.32;95470.31;5064997;28;20182;-87
2021/12/31 00:41:33;;;;;;;16.93;8.80;;;;;;;5.76;84.33;95382.00;5072099;28;20170;-87
2021/12/31 00:43:59;;;;;;;16.63;10.77;;;;;;;6.45;85.51;95522.44;5073312;28;20155;-87
2021/12/31 00:46:25;;;;;;;18.67;10.67;;;;;;;6.09;85.50;95450.66;5072882;28;20155;-87
2021/12/31 00:48:50;;;;;;;14.17;8.80;;;;;;;6.13;85.37;95452.78;5072004;28;20178;-87
2021/12/31 00:51:16;;;;;;;16.70;9.70;;;;;;;6.21;85.15;95437.06;5073277;28;20166;-87
2021/12/31 00:53:42;;;;;;;15.10;8.67;;;;;;;6.10;84.70;95413.91;5071890;28;20244;-87
2021/12/31 00:56:07;;;;;;;15.07;8.70;;;;;;;6.34;84.96;95454.81;5071932;28;20190;-87
2021/12/31 00:58:32;;;;;;;14.93;8.03;;;;;;;6.32;84.47;95439.28;5068663;28;20194;-86
2021/12/31 01:00:58;;;;;;;12.63;7.93;;;;;;;6.33;84.76;95435.69;5060045;28;20258;-86
2021/12/31 01:03:23;;;;;;;14.50;8.43;;;;;;;6.23;83.86;95421.19;5061076;28;20171;-86
2021/12/31 01:05:48;;;;;;;11.83;7.40;;;;;;;6.06;84.17;95405.59;5061697;28;20648;-86
2021/12/31 01:08:14;;;;;;;11.73;7.23;;;;;;;6.11;84.39;95419.97;5067560;28;20253;-87
2021/12/31 01:10:40;;;;;;;10.70;6.90;;;;;;;6.06;84.69;95413.44;5072701;28;20715;-87
2021/12/31 01:13:10;;;;;;;10.87;6.50;;;;;;;6.02;84.28;95427.00;5073050;28;20213;-87
2021/12/31 01:15:43;;;;;;;9.47;5.77;;;;;;;5.91;84.45;95425.56;5073035;28;20594;-86
2021/12/31 01:20:34;;;;;;;10.23;6.03;;;;;;;5.38;84.32;95360.88;5072902;28;20636;-87
2021/12/31 01:23:00;;;;;;;8.80;5.47;;;;;;;6.22;84.30;95474.50;5071361;28;20200;-86
2021/12/31 01:25:25;;;;;;;9.23;5.40;;;;;;;6.29;84.15;95485.91;5072557;28;20189;-86
2021/12/31 01:27:51;;;;;;;8.53;5.13;;;;;;;6.08;83.81;95460.31;5071838;28;20261;-86
2021/12/31 01:30:16;;;;;;;8.50;5.23;;;;;;;5.93;83.26;95433.25;5072467;28;20167;-86
2021/12/31 01:32:43;;;;;;;8.00;5.27;;;;;;;6.33;83.25;95500.25;5072630;28;20623;-86
2021/12/31 01:35:09;;;;;;;9.53;5.13;;;;;;;6.32;83.24;95504.66;5071262;28;20158;-88
2021/12/31 01:37:35;;;;;;;9.10;5.67;;;;;;;6.32;83.58;95494.19;5071195;28;20209;-86
2021/12/31 01:40:01;;;;;;;8.90;5.37;;;;;;;6.32;83.42;95496.81;5071155;28;20166;-87
2021/12/31 01:42:33;;;;;;;9.87;5.80;;;;;;;6.07;83.91;95477.78;5072374;28;20251;-87
2021/12/31 01:45:12;;;;;;;10.37;6.03;;;;;;;6.03;84.44;95489.56;5072675;28;20185;-86
2021/12/31 01:50:19;;;;;;;9.47;5.30;;;;;;;6.23;83.89;95495.22;5073018;28;20158;-86
2021/12/31 01:52:44;;;;;;;10.17;6.47;;;;;;;5.99;83.82;95448.25;5071833;28;20293;-87
2021/12/31 01:55:11;;;;;;;9.50;6.07;;;;;;;6.09;83.59;95468.97;5072065;28;20238;-85
2021/12/31 01:57:40;;;;;;;9.27;6.27;;;;;;;6.08;83.89;95465.53;5057904;28;20197;-84
2021/12/31 02:00:07;;;;;;;12.37;6.67;;;;;;;6.41;83.94;95519.34;5058385;28;20175;-85
2021/12/31 02:02:33;;;;;;;8.50;5.07;;;;;;;6.01;83.27;95451.50;5062475;28;20181;-90
2021/12/31 02:04:58;;;;;;;8.90;6.50;;;;;;;5.87;83.71;95434.72;5071119;28;20659;-89
2021/12/31 02:07:23;;;;;;;8.27;5.00;;;;;;;5.87;83.56;95441.72;5072631;28;20170;-89
2021/12/31 02:09:54;;;;;;;8.47;5.37;;;;;;;5.89;83.81;95443.19;5071407;28;20177;-89
2021/12/31 02:12:20;;;;;;;12.33;6.00;;;;;;;5.93;83.87;95435.84;5070925;28;20233;-89
2021/12/31 02:14:46;;;;;;;11.33;5.87;;;;;;;6.36;83.32;95520.84;5071149;28;20177;-89
2021/12/31 02:17:12;;;;;;;9.03;5.83;;;;;;;6.33;83.90;95518.53;5072204;28;20192;-89
2021/12/31 02:19:43;;;;;;;9.87;5.90;;;;;;;5.97;83.94;95460.66;5072291;28;20190;-89
2021/12/31 02:22:08;;;;;;;9.80;5.20;;;;;;;5.89;83.55;95465.91;5070934;28;20628;-89
2021/12/31 02:24:36;;;;;;;9.53;5.73;;;;;;;6.17;83.74;95503.72;5072204;28;20188;-90
2021/12/31 02:27:02;;;;;;;7.43;5.00;;;;;;;5.97;82.81;95471.09;5070899;28;20554;-89
2021/12/31 02:29:28;;;;;;;10.90;6.37;;;;;;;6.06;83.24;95512.72;5072282;28;20178;-89
2021/12/31 02:31:53;;;;;;;11.47;5.70;;;;;;;5.57;83.16;95417.94;5070955;28;20620;-89
2021/12/31 02:34:19;;;;;;;8.10;5.10;;;;;;;5.91;83.14;95463.94;5072045;28;20218;-89
2021/12/31 02:36:46;;;;;;;11.03;6.67;;;;;;;6.33;82.84;95526.38;5072304;28;20184;-89
2021/12/31 02:39:11;;;;;;;10.03;6.20;;;;;;;5.98;82.90;95460.50;5070950;28;20742;-89
2021/12/31 02:41:37;;;;;;;9.23;6.20;;;;;;;6.20;82.77;95508.63;5063032;28;20174;-89
2021/12/31 02:44:03;;;;;;;10.33;5.87;;;;;;;5.90;82.56;95455.28;5060837;28;20166;-89
2021/12/31 02:46:28;;;;;;;8.70;5.50;;;;;;;6.25;82.35;95511.53;5057014;28;20175;-88
2021/12/31 02:48:57;;;;;;;9.83;5.57;;;;;;;6.05;82.62;95489.41;5063259;28;20655;-88
2021/12/31 02:51:27;;;;;;;13.40;5.90;;;;;;;6.44;82.43;95557.41;5050464;28;20167;-88
2021/12/31 02:53:54;;;;;;;9.80;5.93;;;;;;;6.17;82.17;95500.31;5050345;28;20194;-88
2021/12/31 02:56:27;;;;;;;8.20;5.43;;;;;;;6.40;82.38;95556.94;5051730;28;20225;-87
2021/12/31 02:58:58;;;;;;;9.47;5.87;;;;;;;6.37;82.41;95554.66;5050361;28;20179;-87
2021/12/31 03:01:24;;;;;;;8.10;5.33;;;;;;;6.22;82.25;95537.22;5051653;28;20258;-85
2021/12/31 03:03:53;;;;;;;9.90;5.50;;;;;;;6.04;82.17;95508.69;5058884;28;20744;-85
2021/12/31 03:06:19;;;;;;;10.10;5.77;;;;;;;5.18;82.26;95403.97;5059059;28;20172;-85
2021/12/31 03:08:48;;;;;;;8.20;5.37;;;;;;;6.15;82.31;95563.19;5052917;28;20220;-86
2021/12/31 03:11:16;;;;;;;9.07;5.53;;;;;;;5.88;82.19;95509.50;5072721;28;20218;-85
2021/12/31 03:13:43;;;;;;;9.50;5.23;;;;;;;6.19;81.98;95561.88;5073772;28;20201;-85
2021/12/31 03:16:09;;;;;;;8.33;5.27;;;;;;;5.92;82.07;95536.13;5073848;28;20163;-86
2021/12/31 03:18:36;;;;;;;9.47;5.50;;;;;;;6.16;81.65;95566.63;5073754;28;20166;-86
2021/12/31 03:21:06;;;;;;;8.10;5.30;;;;;;;5.92;81.42;95530.91;5075331;28;20158;-86
2021/12/31 03:23:32;;;;;;;10.23;5.63;;;;;;;5.69;81.32;95496.78;5073865;28;20249;-86
2021/12/31 03:25:58;;;;;;;10.40;5.77;;;;;;;5.79;81.08;95533.19;5075379;28;20308;-85
2021/12/31 03:28:25;;;;;;;9.67;5.30;;;;;;;5.49;81.52;95511.13;5073611;28;20179;-85
2021/12/31 03:30:53;;;;;;;10.07;5.47;;;;;;;5.76;81.98;95583.13;5071781;28;20183;-84
2021/12/31 03:33:19;;;;;;;9.90;6.60;;;;;;;5.81;81.85;95583.44;5065811;28;20789;-86
2021/12/31 03:35:45;;;;;;;12.33;6.67;;;;;;;5.51;81.73;95540.53;5064659;28;20178;-87
2021/12/31 03:38:12;;;;;;;13.97;7.37;;;;;;;5.51;81.65;95551.78;5065115;28;20567;-87
2021/12/31 03:40:38;;;;;;;12.77;7.13;;;;;;;5.57;81.46;95548.50;5053487;28;20225;-87
2021/12/31 03:43:04;;;;;;;12.87;7.70;;;;;;;5.53;81.80;95583.78;5053568;28;20236;-87
2021/12/31 03:45:29;;;;;;;14.53;7.23;;;;;;;5.21;82.85;95558.41;5054946;28;20666;-87
2021/12/31 03:47:55;;;;;;;12.17;7.17;;;;;;;4.73;83.00;95469.63;5053313;28;20171;-88
2021/12/31 03:50:20;;;;;;;9.33;6.73;;;;;;;4.85;82.95;95500.44;5054535;28;20167;-87
2021/12/31 03:52:46;;;;;;;9.10;5.50;;;;;;;5.18;82.86;95550.09;5053479;28;20187;-88
2021/12/31 03:55:11;;;;;;;9.03;5.10;;;;;;;5.37;82.96;95555.00;5053328;28;20638;-87
2021/12/31 03:57:38;;;;;;;7.40;5.00;;;;;;;5.18;82.47;95524.00;5054733;28;20163;-87
2021/12/31 04:00:05;;;;;;;9.73;5.23;;;;;;;5.36;82.01;95534.31;5054622;28;20242;-87
2021/12/31 04:02:30;;;;;;;7.87;4.60;;;;;;;5.46;81.39;95548.00;5053834;28;20190;-87
2021/12/31 04:04:56;;;;;;;8.33;4.80;;;;;;;5.84;80.47;95606.63;5054655;28;20163;-87
2021/12/31 04:07:22;;;;;;;7.73;4.03;;;;;;;5.68;80.10;95573.50;5053183;28;20167;-87
2021/12/31 04:09:48;;;;;;;6.77;4.13;;;;;;;5.40;79.82;95522.56;5053174;28;20171;-88
2021/12/31 04:12:13;;;;;;;8.33;4.50;;;;;;;5.77;79.99;95590.81;5053809;28;20223;-88
2021/12/31 04:14:39;;;;;;;8.60;5.00;;;;;;;5.22;79.94;95509.66;5054223;28;20175;-88
2021/12/31 04:17:04;;;;;;;8.63;4.37;;;;;;;4.73;80.53;95462.63;5054296;28;20648;-88
2021/12/31 04:19:31;;;;;;;19.47;10.10;;;;;;;5.01;81.51;95530.19;5052495;28;20358;-88
2021/12/31 04:21:56;;;;;;;10.43;5.60;;;;;;;5.06;82.05;95541.75;5053640;28;20167;-87
2021/12/31 04:24:52;;;;;;;8.97;5.30;;;;;;;5.06;82.34;95520.06;5052724;28;20621;-87
2021/12/31 04:27:17;;;;;;;9.43;5.20;;;;;;;5.31;81.82;95573.94;5053797;28;20175;-87
2021/12/31 04:29:50;;;;;;;8.83;5.50;;;;;;;5.33;81.57;95582.44;5053857;28;20232;-87
2021/12/31 04:32:15;;;;;;;12.37;6.30;;;;;;;5.04;81.83;95559.34;5052542;28;20171;-87
2021/12/31 04:34:40;;;;;;;10.63;6.10;;;;;;;4.56;82.49;95497.44;5052438;28;20233;-88
2021/12/31 04:37:06;;;;;;;13.27;6.83;;;;;;;4.64;83.32;95526.16;5052667;28;20209;-87
2021/12/31 04:39:31;;;;;;;10.07;6.23;;;;;;;4.76;83.24;95529.28;5053789;28;21055;-88
2021/12/31 04:41:57;;;;;;;11.23;7.30;;;;;;;4.87;82.62;95526.38;5052415;28;20627;-88
2021/12/31 04:44:22;;;;;;;20.07;8.97;;;;;;;4.99;82.21;95545.97;5053823;28;20184;-87
2021/12/31 04:46:47;;;;;;;13.27;7.30;;;;;;;5.01;81.88;95556.28;5053558;28;20174;-87
2021/12/31 04:49:13;;;;;;;12.87;7.00;;;;;;;4.84;81.37;95522.28;5053544;28;20159;-88
2021/12/31 04:51:38;;;;;;;10.27;6.30;;;;;;;4.72;81.38;95509.72;5059551;28;20174;-88
2021/12/31 04:54:04;;;;;;;10.07;5.83;;;;;;;4.94;81.49;95556.06;5062716;28;20738;-86
2021/12/31 04:56:29;;;;;;;14.03;6.83;;;;;;;4.88;81.60;95534.06;5058462;28;20214;-87
2021/12/31 04:58:54;;;;;;;12.53;6.53;;;;;;;5.16;81.00;95576.34;5062367;28;20171;-87
2021/12/31 05:01:23;;;;;;;8.33;5.80;;;;;;;4.78;80.77;95516.91;5059627;28;20672;-87
2021/12/31 05:03:48;;;;;;;8.43;5.57;;;;;;;4.86;80.93;95546.44;5058843;28;20177;-87
2021/12/31 05:06:15;;;;;;;10.30;6.07;;;;;;;4.68;81.16;95511.00;5056155;28;20265;-88
2021/12/31 05:08:41;;;;;;;11.03;5.83;;;;;;;5.21;81.12;95600.19;5066883;28;20167;-87
2021/12/31 05:11:07;;;;;;;11.47;6.13;;;;;;;4.90;81.44;95552.97;5058794;28;20194;-88
2021/12/31 05:13:32;;;;;;;10.10;6.80;;;;;;;4.73;80.89;95533.03;5068253;28;20194;-88
2021/12/31 05:16:02;;;;;;;10.70;6.10;;;;;;;4.79;81.01;95544.63;5063746;28;20182;-87
2021/12/31 05:18:28;;;;;;;8.77;5.43;;;;;;;5.12;80.98;95608.13;5059266;28;20167;-87
2021/12/31 05:20:53;;;;;;;10.00;5.73;;;;;;;4.60;81.07;95521.41;5063500;28;20540;-87
2021/12/31 05:23:19;;;;;;;11.60;6.70;;;;;;;5.15;81.17;95600.00;5065012;28;20647;-88
2021/12/31 05:25:45;;;;;;;11.03;6.50;;;;;;;4.98;81.43;95586.09;5062948;28;20956;-87
2021/12/31 05:28:10;;;;;;;10.20;6.00;;;;;;;5.15;81.43;95605.22;5062202;28;20558;-87
2021/12/31 05:30:36;;;;;;;10.87;6.73;;;;;;;5.11;81.29;95611.72;5052549;28;20159;-87
2021/12/31 05:33:01;;;;;;;12.47;7.13;;;;;;;4.86;81.13;95567.28;5052469;28;20201;-90
2021/12/31 05:35:27;;;;;;;14.80;7.67;;;;;;;5.11;81.54;95607.31;5052712;28;20239;-90
2021/12/31 05:37:54;;;;;;;13.30;8.97;;;;;;;4.13;81.75;95459.34;5052640;28;20607;-90
2021/12/31 05:40:19;;;;;;;16.87;9.33;;;;;;;4.97;82.07;95594.06;5053049;28;20183;-90
2021/12/31 05:42:45;;;;;;;13.33;8.27;;;;;;;4.66;81.84;95549.47;5051287;28;20625;-90
2021/12/31 05:45:11;;;;;;;15.90;9.27;;;;;;;4.92;81.84;95597.97;5052775;28;20187;-88
2021/12/31 05:47:37;;;;;;;18.03;10.00;;;;;;;4.91;81.90;95596.34;5051213;28;20187;-89
2021/12/31 05:50:05;;;;;;;27.60;13.17;;;;;;;5.02;81.96;95613.47;5052761;28;20617;-88
2021/12/31 05:52:31;;;;;;;30.63;15.37;;;;;;;4.84;82.27;95604.97;5061026;28;20198;-87
2021/12/31 05:54:56;;;;;;;31.43;15.50;;;;;;;4.58;82.43;95563.28;5061158;28;20167;-88
2021/12/31 05:57:21;;;;;;;28.53;15.30;;;;;;;4.79;82.51;95592.38;5070956;28;20170;-88
2021/12/31 05:59:47;;;;;;;31.23;16.37;;;;;;;4.82;82.61;95597.28;5072114;28;20170;-87
2021/12/31 06:02:12;;;;;;;29.77;15.33;;;;;;;4.69;81.87;95564.78;5071823;28;20182;-87
2021/12/31 06:04:41;;;;;;;33.23;17.03;;;;;;;5.04;82.07;95637.63;5072104;28;20154;-88
2021/12/31 06:07:06;;;;;;;22.47;11.83;;;;;;;5.01;82.40;95627.53;5070910;28;20181;-88
2021/12/31 06:09:32;;;;;;;21.70;11.90;;;;;;;4.81;82.51;95587.00;5071025;28;20166;-88
2021/12/31 06:11:59;;;;;;;17.80;9.73;;;;;;;5.07;82.74;95626.88;5070753;28;20234;-88
2021/12/31 06:14:24;;;;;;;17.30;9.60;;;;;;;5.11;83.08;95627.38;5070790;28;20202;-88
2021/12/31 06:16:51;;;;;;;17.70;10.67;;;;;;;4.54;82.80;95525.47;5070858;28;20181;-88
2021/12/31 06:19:16;;;;;;;25.17;12.37;;;;;;;4.88;82.25;95564.53;5070902;28;20558;-88
2021/12/31 06:21:51;;;;;;;25.40;13.80;;;;;;;5.34;82.61;95625.00;5070817;28;20178;-88
2021/12/31 06:24:16;;;;;;;37.17;18.87;;;;;;;5.08;82.21;95581.56;5072476;28;20158;-88
2021/12/31 06:26:42;;;;;;;26.60;14.83;;;;;;;5.10;81.85;95582.19;5070706;28;20177;-87
2021/12/31 06:29:08;;;;;;;24.53;14.47;;;;;;;5.17;81.91;95590.22;5070711;28;20620;-87
2021/12/31 06:31:34;;;;;;;22.73;13.80;;;;;;;5.49;81.67;95629.44;5071934;28;20163;-87
2021/12/31 06:34:00;;;;;;;32.07;17.33;;;;;;;5.41;81.47;95618.16;5070642;28;20193;-87
2021/12/31 06:36:26;;;;;;;28.80;17.10;;;;;;;5.46;81.52;95655.88;5070665;28;20896;-88
2021/12/31 06:38:51;;;;;;;37.80;18.87;;;;;;;5.24;81.94;95617.31;5070483;28;20194;-88
2021/12/31 06:41:17;;;;;;;28.03;15.80;;;;;;;5.33;81.58;95642.47;5071791;28;20170;-89
2021/12/31 06:43:46;;;;;;;32.47;16.43;;;;;;;5.46;81.54;95637.59;5071689;28;20170;-88
2021/12/31 06:46:12;;;;;;;25.27;15.23;;;;;;;5.64;81.56;95645.28;5075896;28;20589;-87
2021/12/31 06:48:37;;;;;;;21.87;11.07;;;;;;;4.98;80.90;95530.50;5070589;28;20186;-88
2021/12/31 06:51:02;;;;;;;15.40;9.87;;;;;;;5.27;80.76;95576.06;5074551;28;20175;-87
2021/12/31 06:53:28;;;;;;;14.70;8.50;;;;;;;5.69;80.97;95620.34;5075548;28;20593;-88
2021/12/31 06:55:53;;;;;;;18.70;10.37;;;;;;;5.78;80.67;95618.56;5074589;28;20584;-88
2021/12/31 06:58:19;;;;;;;23.93;13.60;;;;;;;5.71;80.08;95582.81;5074172;28;20166;-87
2021/12/31 07:00:44;;;;;;;21.67;12.57;;;;;;;5.80;80.03;95585.22;5075311;28;20170;-87
2021/12/31 07:03:11;;;;;;;19.83;11.50;;;;;;;6.34;78.77;95662.19;5075909;28;20163;-87
2021/12/31 07:05:39;;;;;;;21.53;11.90;;;;;;;6.05;78.57;95596.56;5075299;28;20174;-87
2021/12/31 07:08:04;;;;;;;22.63;12.37;;;;;;;6.39;78.69;95646.03;5075584;28;20186;-89
2021/12/31 07:10:30;;;;;;;24.67;12.77;;;;;;;6.34;77.93;95625.59;5072738;28;20686;-89
2021/12/31 07:13:00;;;;;;;20.60;10.97;;;;;;;6.41;77.58;95615.28;5060757;28;20706;-87
2021/12/31 07:15:31;;;;;;;40.43;19.33;;;;;;;6.60;77.65;95637.63;5062757;28;20183;-87
2021/12/31 07:18:01;;;;;;;60.30;30.47;;;;;;;6.43;77.35;95595.00;5059845;28;20632;-87
2021/12/31 07:20:27;;;;;;;55.37;27.03;;;;;;;6.96;77.37;95654.56;5067177;28;20179;-88
2021/12/31 07:22:52;;;;;;;41.10;20.63;;;;;;;6.63;77.33;95593.66;5058089;28;20228;-87
2021/12/31 07:25:17;;;;;;;31.47;17.77;;;;;;;7.10;79.53;95622.41;5056712;28;20579;-87
2021/12/31 07:27:43;;;;;;;25.80;14.03;;;;;;;7.20;77.96;95594.22;5059867;28;20175;-89
2021/12/31 07:30:09;;;;;;;20.37;11.00;;;;;;;7.34;77.59;95563.06;5068910;28;20174;-89
2021/12/31 07:32:38;;;;;;;19.67;11.40;;;;;;;7.60;76.37;95571.41;5063404;28;20203;-88
2021/12/31 07:35:04;;;;;;;21.67;11.00;;;;;;;8.02;75.28;95588.47;5064742;28;20174;-88
2021/12/31 07:37:30;;;;;;;23.30;12.67;;;;;;;8.12;74.12;95574.13;5071515;28;20175;-86
2021/12/31 07:40:01;;;;;;;21.17;13.37;;;;;;;8.77;73.53;95651.41;5072587;28;20178;-85
2021/12/31 07:42:27;;;;;;;20.13;12.27;;;;;;;8.66;72.96;95621.16;5062077;28;20229;-86
2021/12/31 07:44:53;;;;;;;15.50;9.80;;;;;;;8.46;72.54;95575.47;5061206;28;20186;-85
2021/12/31 07:47:19;;;;;;;17.87;10.07;;;;;;;8.77;72.37;95619.91;5063772;28;20641;-86
2021/12/31 07:49:44;;;;;;;15.33;9.57;;;;;;;8.89;73.61;95623.72;5058084;28;20174;-85
2021/12/31 07:52:10;;;;;;;17.93;9.70;;;;;;;8.87;71.57;95608.13;5054772;28;20178;-85
2021/12/31 07:54:35;;;;;;;15.73;10.10;;;;;;;8.74;71.53;95599.25;5053965;28;20194;-86
2021/12/31 07:57:00;;;;;;;13.00;8.60;;;;;;;8.77;71.77;95601.53;5052880;28;20225;-84
2021/12/31 07:59:26;;;;;;;16.70;8.77;;;;;;;9.39;78.75;95613.25;5053084;28;20649;-86
2021/12/31 08:01:51;;;;;;;14.03;8.20;;;;;;;10.19;73.50;95670.97;5053274;28;20262;-83
2021/12/31 08:04:17;;;;;;;18.53;9.83;;;;;;;9.86;67.97;95604.03;5053217;28;20170;-87
2021/12/31 08:06:42;;;;;;;22.10;9.90;;;;;;;9.97;67.15;95627.19;5052876;28;20217;-87
2021/12/31 08:09:10;;;;;;;10.90;6.07;;;;;;;9.70;67.47;95612.97;5062363;28;20174;-86
2021/12/31 08:11:37;;;;;;;10.23;5.67;;;;;;;9.54;67.73;95618.47;5057521;28;20234;-85
2021/12/31 08:14:03;;;;;;;6.70;4.80;;;;;;;9.27;67.61;95606.00;5052539;28;20238;-85
2021/12/31 08:16:28;;;;;;;7.43;4.33;;;;;;;9.46;67.65;95640.41;5052722;28;20159;-87
2021/12/31 08:18:54;;;;;;;7.50;4.60;;;;;;;9.04;67.92;95578.06;5058213;28;20237;-85
2021/12/31 08:21:19;;;;;;;10.00;4.60;;;;;;;9.20;67.47;95632.19;5062974;28;20186;-85
2021/12/31 08:23:44;;;;;;;9.03;5.10;;;;;;;9.03;68.44;95604.50;5064425;28;20257;-85
2021/12/31 08:26:10;;;;;;;10.47;5.57;;;;;;;9.28;67.53;95612.91;5066872;28;20300;-85
2021/12/31 08:28:35;;;;;;;9.27;5.20;;;;;;;9.92;67.37;95681.38;5073647;28;20170;-85
2021/12/31 08:31:01;;;;;;;9.53;5.47;;;;;;;9.90;67.05;95639.47;5059601;28;20181;-86
2021/12/31 08:33:26;;;;;;;7.67;5.53;;;;;;;10.03;66.89;95600.13;5053617;28;20195;-86
2021/12/31 08:35:52;;;;;;;8.10;5.20;;;;;;;10.82;64.86;95657.88;5052344;28;20216;-87
2021/12/31 08:38:18;;;;;;;9.43;6.27;;;;;;;11.04;63.33;95595.41;5052357;28;20165;-88
2021/12/31 08:40:43;;;;;;;11.07;5.23;;;;;;;12.17;62.33;95672.13;5063414;28;20170;-85
2021/12/31 08:43:09;;;;;;;14.27;5.87;;;;;;;12.33;60.68;95612.84;5058328;28;20232;-87
2021/12/31 08:45:35;;;;;;;9.73;6.07;;;;;;;12.74;58.76;95597.56;5065593;28;20179;-87
2021/12/31 08:48:01;;;;;;;226.63;85.07;;;;;;;13.22;57.41;95621.09;5058850;28;20263;-83
2021/12/31 08:50:27;;;;;;;465.37;428.47;;;;;;;13.71;56.68;95659.38;5061196;28;20185;-84
2021/12/31 08:52:52;;;;;;;486.40;438.60;;;;;;;13.96;55.93;95665.56;5069028;28;20206;-84
2021/12/31 08:55:19;;;;;;;229.67;212.40;;;;;;;13.85;55.36;95631.81;5071814;28;20697;-84
2021/12/31 08:57:44;;;;;;;174.93;162.03;;;;;;;13.87;54.52;95614.72;5055101;28;20541;-84
2021/12/31 09:00:10;;;;;;;86.30;79.80;;;;;;;14.08;54.13;95666.53;5072951;28;20178;-84
2021/12/31 09:02:39;;;;;;;10.93;5.93;;;;;;;13.90;53.54;95630.19;5071747;28;20524;-84
2021/12/31 09:05:06;;;;;;;21.30;12.53;;;;;;;13.93;54.53;95656.19;5072936;28;20175;-83
2021/12/31 09:07:31;;;;;;;10.83;7.03;;;;;;;13.44;54.35;95580.13;5071247;28;20247;-83
2021/12/31 09:09:56;;;;;;;14.93;7.90;;;;;;;13.93;54.76;95650.91;5063531;28;20178;-83
2021/12/31 09:12:22;;;;;;;8.67;5.70;;;;;;;13.71;54.93;95594.03;5058576;28;20284;-83
2021/12/31 09:14:47;;;;;;;8.87;6.20;;;;;;;13.77;54.54;95593.19;5063914;28;20193;-84
2021/12/31 09:17:13;;;;;;;7.57;5.20;;;;;;;13.96;54.17;95602.84;5056307;28;20618;-82
2021/12/31 09:19:38;;;;;;;10.70;7.57;;;;;;;13.93;53.62;95594.50;5053062;28;20217;-83
2021/12/31 09:22:04;;;;;;;22.77;6.83;;;;;;;13.44;54.22;95505.25;5052498;28;20175;-83
2021/12/31 09:24:33;;;;;;;9.93;6.07;;;;;;;13.93;54.37;95579.44;5051312;28;20298;-83
2021/12/31 09:26:58;;;;;;;9.83;6.50;;;;;;;14.24;54.05;95617.53;5052452;28;20178;-83
2021/12/31 09:29:24;;;;;;;8.00;5.70;;;;;;;14.27;53.57;95614.47;5052478;28;20175;-84
2021/12/31 09:31:52;;;;;;;11.03;6.43;;;;;;;13.73;53.80;95533.78;5052601;28;20696;-85
2021/12/31 09:34:19;;;;;;;10.00;6.40;;;;;;;14.45;53.94;95640.22;5051028;28;20190;-83
2021/12/31 09:36:44;;;;;;;13.00;5.77;;;;;;;14.47;54.63;95628.41;5052304;28;20176;-84
2021/12/31 09:39:10;;;;;;;11.67;5.43;;;;;;;14.41;54.17;95623.16;5051146;28;20194;-84
2021/12/31 09:41:36;;;;;;;9.30;5.50;;;;;;;14.33;52.87;95611.78;5052347;28;20966;-84
2021/12/31 09:44:01;;;;;;;12.83;6.10;;;;;;;14.32;53.43;95619.94;5052749;28;20217;-84
2021/12/31 09:46:27;;;;;;;11.87;6.57;;;;;;;14.03;53.75;95601.97;5052218;28;20164;-84
2021/12/31 09:48:52;;;;;;;10.37;6.30;;;;;;;13.84;54.22;95593.94;5052176;28;20166;-84
2021/12/31 09:51:18;;;;;;;12.17;6.90;;;;;;;13.97;54.87;95612.41;5050822;28;20183;-84
2021/12/31 09:53:45;;;;;;;12.30;6.67;;;;;;;13.92;55.69;95614.88;5052197;28;20269;-82
2021/12/31 09:56:13;;;;;;;8.60;5.57;;;;;;;13.65;55.33;95570.25;5051205;28;20182;-84
2021/12/31 09:58:39;;;;;;;12.83;8.03;;;;;;;13.87;55.84;95608.59;5050911;28;20175;-85
2021/12/31 10:01:07;;;;;;;14.60;8.00;;;;;;;13.34;56.30;95510.19;5052537;28;20213;-85
2021/12/31 10:03:35;;;;;;;11.53;7.73;;;;;;;13.95;56.60;95593.28;5055369;28;20175;-85
2021/12/31 10:06:13;;;;;;;18.30;8.60;;;;;;;13.66;56.54;95553.38;5061766;28;20182;-87
2021/12/31 10:08:46;;;;;;;10.73;6.67;;;;;;;13.75;56.31;95571.41;5058795;28;20177;-85
2021/12/31 10:11:25;;;;;;;10.60;6.63;;;;;;;13.87;56.72;95584.78;5054534;28;20677;-86
2021/12/31 10:14:08;;;;;;;14.83;9.20;;;;;;;13.72;56.70;95577.13;5052977;28;20234;-84
2021/12/31 10:16:40;;;;;;;10.63;6.77;;;;;;;13.65;57.31;95568.44;5054958;28;20271;-85
2021/12/31 10:19:21;;;;;;;10.03;6.13;;;;;;;13.64;58.24;95585.31;5053620;28;20198;-85
2021/12/31 10:21:54;;;;;;;12.03;6.43;;;;;;;13.53;57.61;95581.50;5057783;28;20175;-84
2021/12/31 10:24:36;;;;;;;10.37;6.13;;;;;;;13.44;57.56;95576.66;5053359;28;20640;-84
2021/12/31 10:27:20;;;;;;;9.07;6.00;;;;;;;13.37;57.92;95574.06;5055040;28;20178;-85
2021/12/31 10:30:22;;;;;;;9.03;4.93;;;;;;;13.32;58.39;95575.72;5060241;28;20628;-84
2021/12/31 10:32:54;;;;;;;9.23;5.00;;;;;;;13.14;58.78;95557.88;5062675;28;20205;-83
2021/12/31 10:35:23;;;;;;;13.00;6.77;;;;;;;13.12;58.79;95565.19;5061433;28;20212;-83
2021/12/31 10:37:57;;;;;;;15.07;7.77;;;;;;;12.90;59.13;95532.91;5039589;28;20668;-83
2021/12/31 10:41:03;;;;;;;9.83;6.13;;;;;;;12.71;60.02;95510.03;5054153;28;20206;-83
2021/12/31 10:43:54;;;;;;;16.20;8.67;;;;;;;12.83;60.39;95545.31;5054308;28;20183;-82
2021/12/31 10:46:22;;;;;;;14.43;6.77;;;;;;;12.63;60.16;95518.13;5062621;28;20719;-86
2021/12/31 10:48:54;;;;;;;11.57;7.17;;;;;;;12.75;61.23;95537.63;5058838;28;20658;-84
2021/12/31 10:51:48;;;;;;;12.77;6.40;;;;;;;12.70;60.79;95538.25;5058889;28;21373;-83
2021/12/31 10:54:33;;;;;;;16.50;7.00;;;;;;;12.65;60.98;95539.88;5055622;28;20214;-82
2021/12/31 10:57:32;;;;;;;9.80;6.03;;;;;;;12.55;61.27;95529.75;5050833;28;20648;-83
2021/12/31 11:00:06;;;;;;;10.63;6.63;;;;;;;12.43;61.89;95520.84;5051442;28;20194;-83
2021/12/31 11:02:35;;;;;;;16.40;9.20;;;;;;;12.32;62.35;95511.69;5058827;28;20227;-83
2021/12/31 11:05:02;;;;;;;10.50;6.20;;;;;;;12.41;62.36;95542.16;5057182;28;20541;-85
2021/12/31 11:07:39;;;;;;;20.17;8.77;;;;;;;12.39;63.31;95546.81;5056793;28;20201;-84
2021/12/31 11:10:05;;;;;;;17.47;7.70;;;;;;;12.38;63.13;95547.03;5060827;28;20672;-85
2021/12/31 11:12:57;;;;;;;10.87;6.33;;;;;;;12.39;63.47;95538.91;5061248;28;20202;-84
2021/12/31 11:15:31;;;;;;;16.23;8.67;;;;;;;12.19;63.33;95521.47;5058721;28;20219;-84
2021/12/31 11:18:00;;;;;;;20.57;9.87;;;;;;;12.32;63.44;95542.56;5058346;28;20180;-84
2021/12/31 11:20:28;;;;;;;13.47;6.90;;;;;;;12.02;63.70;95495.47;5054871;28;20252;-83
2021/12/31 11:22:56;;;;;;;13.70;6.83;;;;;;;12.04;63.46;95506.66;5060830;28;20192;-85
2021/12/31 11:25:31;;;;;;;20.70;9.00;;;;;;;12.19;64.63;95543.41;5060476;28;20190;-82
2021/12/31 11:28:22;;;;;;;17.63;10.20;;;;;;;12.17;65.03;95540.16;5052753;28;20190;-83
2021/12/31 11:30:49;;;;;;;30.10;9.23;;;;;;;12.12;64.92;95539.94;5055612;28;20187;-84
2021/12/31 11:33:35;;;;;;;31.13;15.20;;;;;;;12.08;64.97;95536.09;5064241;28;20226;-85
2021/12/31 11:36:11;;;;;;;23.23;11.80;;;;;;;11.99;65.36;95540.75;5069304;28;20266;-85
2021/12/31 11:38:48;;;;;;;30.90;15.73;;;;;;;11.82;65.23;95528.97;5054084;28;20195;-84
2021/12/31 11:41:26;;;;;;;27.37;11.33;;;;;;;11.84;66.07;95540.16;5058889;28;20170;-84